Colorado AWOS List, Phone Numbers, Maps

USA |  
| Search AWOS

Rocky Mountain States: Montana | Wyoming | Colorado | New Mexico

Complete weather reports: Colorado

Legend: KFNL = METAR available Follow your local AWOS on AV Mobile = METAR available on AV Mobile
Station Colorado Location Frequency Phone
KAKOFAA ID AKO, ASOS, KAKO 020753Z AUTO 25012KT 10SM SCT044 00/M03 A3026 RMK AO2 SLP264 T00001033 Follow KAKO on AV Mobile COLORADO PLAINS REGIONAL 135.475 970-345-2320
KALSFAA ID ALS, ASOS, KALS 020752Z AUTO 09003KT 10SM BKN027 OVC036 01/M02 A3024 Follow KALS on AV Mobile SAN LUIS VALLEY REGIONAL 135.175 719-589-5669
KASEFAA ID ASE, ASOS, KASE 020753Z AUTO 00000KT 10SM FEW050 OVC065 02/M03 A3020 Follow KASE on AV Mobile ASPEN-PITKIN COUNTY AIRPORT 120.400 970-925-9168
KBKFFAA ID BKF, KBKF 020758Z AUTO 19007KT 10SM FEW210 M01/M02 A3027 Follow KBKF on AV Mobile Aurora, Buckley Air Force Base Airport
K7BMFAA ID 7BM, AWOS-3, K7BM 020750Z AUTO 00000KT 3SM -SN SCT001 SCT010 OVC065 M02/M04 A3026 RMK AO2 Follow K7BM on AV Mobile Cottonwood Pass 132.050 303-512-4919
KBDUFAA ID BDU, AWOS-3, KBDU 020756Z AUTO 00000KT 10SM CLR 01/00 A3027 RMK AO2 Follow KBDU on AV Mobile Boulder Municipal Airport 118.825 303-541-9540
KAEJFAA ID AEJ, AWOS-3, KAEJ 020755Z AUTO 00000KT 7SM -SN SCT004 BKN021 OVC032 M01/M03 A3026 RMK AO2 T10151027 Follow KAEJ on AV Mobile Central Colorado Regional Airport 132.925 719-395-2599
KITRFAA ID ITR, ASOS, KITR 020753Z AUTO 28007KT 10SM CLR M02/M04 A3026 RMK AO2 SLP250 T10171039 Follow KITR on AV Mobile Kit Carson County Airport 135.225 719-346-7036
K1V6FAA ID 1V6, AWOS-3, K1V6 020755Z AUTO 33003KT 10SM OVC044 03/02 A3029 RMK AO2 Follow K1V6 on AV Mobile CANON CITY 120.025
KAFFFAA ID AFF, KAFF 020758Z AUTO 03006KT 10SM OVC034 M04/M06 A3027 RMK AO2 SLP286 Follow KAFF on AV Mobile Air Force Academy
KCOSFAA ID COS, ASOS, KCOS 020754Z 01004KT 10SM BKN043 M01/M04 A3028 Follow KCOS on AV Mobile COLORADO SPRINGS MUNI 125.000 719-637-9696
KFLYFAA ID FLY, AWOS-3PT, KFLY 020759Z AUTO 28003KT 10SM CLR M04/M06 A3028 RMK AO2 T10391061 Follow KFLY on AV Mobile Meadowlake Airport, Peyton, CO 118.450 719-683-5371
KCCUFAA ID CCU, AWOS-3, KCCU 072317Z AUTO 29011G20KT 240V310 10SM CLR 07/M14 A3041 RMK AO2 Follow KCCU on AV Mobile Copper Mountain, Red Cliff Pass 118.075 970-968-1715
KCEZFAA ID CEZ, ASOS, KCEZ 020753Z AUTO 16003KT 10SM SCT029 OVC040 06/01 A3021 RMK AO2 SLP200 T00610011 Follow KCEZ on AV Mobile CORTEZ MONTEZUMA COUNTY AIRPORT 135.625 970-564-0193
KCAGFAA ID CAG, ASOS, KCAG 020753Z AUTO 26004KT 10SM OVC080 02/M03 A3020 Follow KCAG on AV Mobile CRAIG MOFFAT AIRPORT 135.425 970-824-2373
KRCVFAA ID RCV, AWOS-3PT, KRCV 020755Z AUTO 00000KT 10SM SCT035 BKN046 OVC055 00/M03 A3026 RMK AO2 T10021035 Follow KRCV on AV Mobile DEL NORTE 118.275 719-657-9017
KAJZFAA ID AJZ, AWOS-3, KAJZ 020755Z AUTO 02003KT 10SM OVC042 08/06 A3020 RMK AO2 T00800057 Follow KAJZ on AV Mobile Blake Field Airport 134.000 970-874-3251
KDNRICAO ID KDNR Denver / Stapleton International, Co.
KAPAFAA ID APA, ASOS, KAPA 020753Z 18004KT 10SM FEW150 M02/M04 A3027 RMK AO2 SLP281 T10221039 Follow KAPA on AV Mobile DENVER CENTENNIAL AIRPORT 120.300 303-706-9098
KDENFAA ID DEN, ASOS, KDEN 020753Z 23005KT 10SM FEW050 00/M03 A3027 Follow KDEN on AV Mobile DENVER INTERNATIONAL AIRPORT 125.600 303-342-0838
KFTGFAA ID FTG, AWOS-3, KFTG 020247Z 00000KT 10SM SCT050 00/M02 A3028 Follow KFTG on AV Mobile Front Range Airport 119.025 303-261-9104
KBJCFAA ID BJC, AWOS-3, KBJC 020755Z AUTO 00000KT 10SM CLR 02/M01 A3027 Follow KBJC on AV Mobile Rocky Mountain Metro Airport 126.250 720-887-8067
K4V5ICAO ID K4V5 Durango Aviation Weather Reporting Station
KDROFAA ID DRO, ASOS, KDRO 020753Z AUTO 10003KT 10SM OVC040 03/02 A3024 RMK AO2 SLP244 T00280017 $ Follow KDRO on AV Mobile DURANGO-LA PLATA COUNTY AIRPORT 120.625 970-259-3579
KEGEFAA ID EGE, AWOS-3, KEGE 020755Z AUTO 00000KT 10SM OVC080 03/M02 A3022 Follow KEGE on AV Mobile Eagle County Regional 135.575 970-524-7386
CO90FAA ID CO90, ASOS, K1S5 020825Z AUTO 02003KT 10SM CLR 07/04 A3002 RMK AO2 T00660037 Follow  on AV Mobile USAF Academy Bullseye Aux Airstrip 118.325 719-683-3346
K0COFAA ID 0CO, AWOS-3, K0CO 020756Z AUTO 36005KT CLR M10/M16 A3025 RMK AO2 PWINO Follow K0CO on AV Mobile EMPIRE 134.325
KEIKFAA ID EIK, AWOS-3, KEIK 020755Z AUTO 00000KT 10SM CLR M01/M01 A3028 RMK AO2 T10071015 Follow KEIK on AV Mobile Erie Municipal Airport 133.825 303-604-4339
KFCSFAA ID FCS, KFCS 020758Z AUTO 00000KT 10SM OVC044 02/M01 A3027 RMK AO2 SLP278 T00191010 $ Follow KFCS on AV Mobile Fort Carson
KFCLICAO ID KFCL Fort Collins Supplementary Aviation Weather Reporting Station
KFNLFAA ID FNL, AWOS-3, KFNL 020755Z AUTO 01007KT 10SM CLR M01/M04 A3028 RMK AO1 Follow KFNL on AV Mobile Fort Collins/Loveland, Fort Collins-Loveland Municipal Airport 135.075 970-669-9187
KFMMFAA ID FMM, AWOS-3, KFMM 020755Z AUTO 27005KT 10SM CLR M02/M03 A3028 RMK AO2 T10161028 Follow KFMM on AV Mobile Fort Morgan Municipal Airport 132.950 970-867-4823
KGNBFAA ID GNB, AWOS-3PT Granby-Grand County Airport 119.925 970-887-1803
KGJTFAA ID GJT, ASOS, KGJT 020753Z AUTO 13009KT 10SM OVC120 08/04 A3017 Follow KGJT on AV Mobile GRAND JUNCTION WALKER FIELD 118.550 970-245-7881
KGXYFAA ID GXY, AWOS-3, KGXY 020755Z 34006KT 10SM CLR M02/M04 A3029 RMK AO1 Follow KGXY on AV Mobile Greeley, Greeley-Weld County Airport 135.175 970-352-3511
K2V9ICAO ID K2V9 Gunnison Aviation Weather Reporting Station
KGUCFAA ID GUC, AWOS-3, KGUC 020755Z AUTO 00000KT 10SM SCT029 BKN044 01/M02 A3026 RMK AO1 Follow KGUC on AV Mobile Gunnison, Gunnison-Crested Butte Regional Airport 135.075 970-641-3240
KHDNFAA ID HDN, AWOS-3, KHDN 020755Z AUTO 19003KT 10SM OVC080 02/M04 A3020 RMK AO1 Follow KHDN on AV Mobile Hayden, Yampa Valley Airport 119.275 970-276-3690
KHEQFAA ID HEQ, AWOS-3, KHEQ 020755Z AUTO 27005KT 10SM SCT050 01/M01 A3025 RMK AO2 Follow KHEQ on AV Mobile Holyoke Airport 119.275 970-854-3679
K20VFAA ID 20V, AWOS-3, K20V 020756Z AUTO 00000KT 10SM CLR M03/M07 A3025 RMK AO2 Follow K20V on AV Mobile Kremmling, Mc Elroy Airfield 118.425 970-724-9659
KLHXFAA ID LHX, ASOS, KLHX 020753Z AUTO 30007KT 10SM CLR 01/M01 A3028 RMK AO2 SLP253 T00111011 Follow KLHX on AV Mobile LA JUNTA MUNICIPAL AIRPORT 135.525 719-384-5961
KVTPFAA ID VTP, AWOS-3, KVTP 020752Z AUTO 10SM SCT004 OVC008 M05/M06 A3025 RMK AO2 Follow KVTP on AV Mobile La Veta Mountain, La Veta Pass 119.925 719-587-3120
KLAAFAA ID LAA, ASOS, KLAA 020753Z AUTO 00000KT 10SM CLR 00/M03 A3026 RMK AO2 SLP249 T00001028 TSNO Follow KLAA on AV Mobile LAMAR MUNICIPAL AIRPORT 135.625 719-336-3854
KLXVFAA ID LXV, ASOS, KLXV 020753Z AUTO 08003KT 10SM OVC017 M06/M07 A3024 Follow KLXV on AV Mobile LEADVILLE LAKE CO 118.375 719-486-2735
KLICFAA ID LIC, ASOS, KLIC 020755Z AUTO 31004KT 10SM CLR M04/M05 A3027 RMK AO2 SLP268 T10391050 $ Follow KLIC on AV Mobile LIMON MUNICIPAL AIRPORT 121.125 719-775-0515
KLMOFAA ID LMO, AWOS-3, KLMO 020755Z AUTO 00000KT 5SM HZ CLR 02/M01 A3029 RMK AO2 T00151015 Follow KLMO on AV Mobile Vance Brand Airport 120.000 303-684-7545
KEEOFAA ID EEO, ASOS, KEEO 020753Z AUTO 00000KT 10SM FEW028 SCT034 OVC085 02/M01 A3019 RMK AO2 SLP187 T00221011 $ Follow KEEO on AV Mobile MEEKER AIRPORT 135.525 970-878-5036
KMYPFAA ID MYP, AWOS-3, KMYP 020755Z AUTO 1/4SM FZFG OVC002 M07/M08 A3036 RMK AO2 Follow KMYP on AV Mobile Salida Mountain, Monarch Pass 124.175 719-539-4436
KMTJFAA ID MTJ, ASOS, KMTJ 020753Z AUTO 00000KT 10SM BKN045 BKN060 OVC085 06/03 A3022 RMK AO2 RAE37 SLP199 P0000 T00560033 Follow KMTJ on AV Mobile MONTROSE REGIONAL AIRPORT 135.225 970-249-1534
KMNHFAA ID MNH, AWOS-3, KMNH 020756Z AUTO 24005KT 10SM CLR M07/M08 A3028 RMK AO2 Follow KMNH on AV Mobile Elbert Mountain, Monument Pass 134.375 303-648-3479
KCRVICAO ID KCRV Nederland Mountain, Corona Pass
KAIBFAA ID AIB, AWOS-3, KAIB 020755Z AUTO 00000KT 10SM SCT026 OVC033 04/03 A3025 RMK AO2 Follow KAIB on AV Mobile Hopkins Field Airport 132.525 970-864-2325
KPSOFAA ID PSO, AWOS-3, KPSO 020755Z AUTO 00000KT 10SM -SN SCT005 OVC011 01/01 A3025 RMK AO2 T00110011 Follow KPSO on AV Mobile Stevens Field Airport 127.175 970-731-0365
KPEFICAO ID KPEF Peterson Air Force Base
KPUXICAO ID KPUX Pueblo NEXRAD
KPUBFAA ID PUB, ASOS, KPUB 020753Z AUTO 28003KT 10SM SCT055 OVC090 04/01 A3029 Follow KPUB on AV Mobile PUEBLO MEMORIAL AIRPORT 125.250 719-948-2803
4V0FAA ID 4V0, AWOS-3PT, K1S5 020825Z AUTO 02003KT 10SM CLR 07/04 A3002 RMK AO2 T00660037 Follow  on AV Mobile RANGELY 119.025 970-675-2339
K1V1ICAO ID K1V1 Rifle Aviation Weather Reporting Station
KRILFAA ID RIL, ASOS, KRIL 020753Z AUTO 19003KT 10SM BKN041 OVC048 07/04 A3018 RMK AO2 RAB24E44 SLP188 P0000 T00720044 $ Follow KRIL on AV Mobile RIFLE GARFIELD COUNTY RGNL 135.275 970-625-2206
K04VFAA ID 04V, AWOS-3, K04V 020755Z AUTO 11005KT 10SM BKN050 OVC095 00/M02 A3026 RMK AO2 Follow K04V on AV Mobile Saguache, Saguache Municipal Airport 118.625 719-655-2229
KS29ICAO ID KS29 Salida
KANKFAA ID ANK, AWOS-3, KANK 020755Z AUTO 00000KT 4SM SCT017 BKN065 OVC075 00/M01 A3035 RMK AO1 T10011010 Follow KANK on AV Mobile Harriet Alexander Field Airport 133.850 719-539-5268
KSPDICAO ID KSPD, KSPD 020756Z AUTO 31007KT M01/M02 A3025 RMK AO1 SLP245 T10061017 Follow KSPD on AV Mobile SPRINGFIELD COMANCHE NATL
KSBSFAA ID SBS, AWOS-3, KSBS 020755Z AUTO 00000KT 10SM BKN075 00/M04 A3020 RMK AO1 T00031045 Follow KSBS on AV Mobile Steamboat Springs 118.325 970-879-7794
KSTKFAA ID STK, AWOS-3, KSTK 020750Z AUTO 22006KT 10SM SCT050 M01/M02 A3026 RMK AO2 Follow KSTK on AV Mobile Sterling Municipal Airport 118.525 970-526-3009
K5SMFAA ID 5SM, AWOS-3, K5SM 020754Z AUTO 00000KT 10SM BKN012 BKN029 OVC042 M01/M02 A3029 RMK AO2 TSNO Follow K5SM on AV Mobile Sunlight 126.075 970-384-3380
KTEXFAA ID TEX, AWOS-3, KTEX 020755Z AUTO 19004KT 1/2SM FZFG BKN001 00/00 A3025 RMK AO2 VIS 1/4V5 T10021002 Follow KTEX on AV Mobile Telluride, Telluride Regional Airport 118.325 970-728-1534
KTADFAA ID TAD, ASOS, KTAD 020754Z AUTO 29004KT 10SM OVC032 01/M01 A3028 RMK AO2 SLP257 T00111006 $ Follow KTAD on AV Mobile Trinidad, Perry Stokes Airport 119.025 719-845-1156
K33VFAA ID 33V, AWOS-3, K33V 020756Z AUTO 11003KT 10SM CLR M07/M09 A3026 RMK AO2 Follow K33V on AV Mobile WALDEN 118.625 970-723-4513
4V1FAA ID 4V1, AWOS-3, K1S5 020825Z AUTO 02003KT 10SM CLR 07/04 A3002 RMK AO2 T00660037 Follow  on AV Mobile Spanish Peaks Airfield 123.600 719-738-1053
K4BMFAA ID 4BM, AWOS-3, K4BM 020756Z AUTO 00000KT 3/4SM BR OVC002 A3026 RMK AO2 VIS 1/2V1 1/2 Follow K4BM on AV Mobile Wilkerson Pass 132.3 303-512-4418
KC96ICAO ID KC96 Winter Park Resort
KCPWFAA ID CPW, AWOS-3, KCPW 020756Z AUTO 21011KT 1/4SM SN OVC001 M06/M06 A3029 RMK AO2 P0001 Follow KCPW on AV Mobile Pagosa Springs, Wolf Creek Pass 121.125 970-264-2180
K2V5FAA ID 2V5, AWOS-3, K2V5 201635Z AUTO 01004KT 10SM SCT036 SCT044 SCT060 13/03 A3003 RMK AO2 T01330032 Follow K2V5 on AV Mobile Wray Municipal Airport 118.250 970-332-5930
2V6FAA ID 2V6, AWOS-3, K1S5 020825Z AUTO 02003KT 10SM CLR 07/04 A3002 RMK AO2 T00660037 Follow  on AV Mobile YUMA 135.375 970-848-3007

Click on the AV Mobile icon AV Mobile icon by any station to follow that AWOS feed on AirportView.net Mobile.

Legend: Commercial service airport with AWOS Commercial Airport AWOSNon-Commercial service airport with AWOS Non-Commercial Airport AWOS
Airport AWOS - Click symbol for weather report Fort Morgan Municipal Airport KFMM 020755Z AUTO 27005KT 10SM CLR M02/M03 A3028 RMK AO2 T10161028 Hopkins Field Airport KAIB 020755Z AUTO 00000KT 10SM SCT026 OVC033 04/03 A3025 RMK AO2 Telluride, Telluride Regional Airport KTEX 020755Z AUTO 19004KT 1/2SM FZFG BKN001 00/00 A3025 RMK AO2 VIS 1/4V5 T10021002 Greeley, Greeley-Weld County Airport KGXY 020755Z 34006KT 10SM CLR M02/M04 A3029 RMK AO1 Front Range Airport KFTG 020247Z 00000KT 10SM SCT050 00/M02 A3028 Rocky Mountain Metro Airport KBJC 020755Z AUTO 00000KT 10SM CLR 02/M01 A3027 DENVER CENTENNIAL AIRPORT KAPA 020753Z 18004KT 10SM FEW150 M02/M04 A3027 RMK AO2 SLP281 T10221039 DENVER INTERNATIONAL AIRPORT KDEN 020753Z 23005KT 10SM FEW050 00/M03 A3027 Fort Collins/Loveland, Fort Collins-Loveland Municipal Airport KFNL 020755Z AUTO 01007KT 10SM CLR M01/M04 A3028 RMK AO1 Boulder Municipal Airport KBDU 020756Z AUTO 00000KT 10SM CLR 01/00 A3027 RMK AO2 Vance Brand Airport KLMO 020755Z AUTO 00000KT 5SM HZ CLR 02/M01 A3029 RMK AO2 T00151015 Sterling Municipal Airport KSTK 020750Z AUTO 22006KT 10SM SCT050 M01/M02 A3026 RMK AO2 Holyoke Airport KHEQ 020755Z AUTO 27005KT 10SM SCT050 01/M01 A3025 RMK AO2 COLORADO PLAINS REGIONAL KAKO 020753Z AUTO 25012KT 10SM SCT044 00/M03 A3026 RMK AO2 SLP264 T00001033 Kit Carson County Airport KITR 020753Z AUTO 28007KT 10SM CLR M02/M04 A3026 RMK AO2 SLP250 T10171039 LIMON MUNICIPAL AIRPORT KLIC 020755Z AUTO 31004KT 10SM CLR M04/M05 A3027 RMK AO2 SLP268 T10391050 $ COLORADO SPRINGS MUNI KCOS 020754Z 01004KT 10SM BKN043 M01/M04 A3028 LAMAR MUNICIPAL AIRPORT KLAA 020753Z AUTO 00000KT 10SM CLR 00/M03 A3026 RMK AO2 SLP249 T00001028 TSNO LA JUNTA MUNICIPAL AIRPORT KLHX 020753Z AUTO 30007KT 10SM CLR 01/M01 A3028 RMK AO2 SLP253 T00111011 Trinidad, Perry Stokes Airport KTAD 020754Z AUTO 29004KT 10SM OVC032 01/M01 A3028 RMK AO2 SLP257 T00111006 $ PUEBLO MEMORIAL AIRPORT KPUB 020753Z AUTO 28003KT 10SM SCT055 OVC090 04/01 A3029 CANON CITY 1V6 SAN LUIS VALLEY REGIONAL KALS 020752Z AUTO 09003KT 10SM BKN027 OVC036 01/M02 A3024 Saguache, Saguache Municipal Airport K04V 020755Z AUTO 11005KT 10SM BKN050 OVC095 00/M02 A3026 RMK AO2 Granby-Grand County Airport KGNB WALDEN 33V Steamboat Springs KSBS 020755Z AUTO 00000KT 10SM BKN075 00/M04 A3020 RMK AO1 T00031045 Hayden, Yampa Valley Airport KHDN 020755Z AUTO 19003KT 10SM OVC080 02/M04 A3020 RMK AO1 Kremmling, Mc Elroy Airfield K20V 020756Z AUTO 00000KT 10SM CLR M03/M07 A3025 RMK AO2 LEADVILLE LAKE CO KLXV 020753Z AUTO 08003KT 10SM OVC017 M06/M07 A3024 Eagle County Regional KEGE 020755Z AUTO 00000KT 10SM OVC080 03/M02 A3022 CRAIG MOFFAT AIRPORT KCAG 020753Z AUTO 26004KT 10SM OVC080 02/M03 A3020 MEEKER AIRPORT KEEO 020753Z AUTO 00000KT 10SM FEW028 SCT034 OVC085 02/M01 A3019 RMK AO2 SLP187 T00221011 $ ASPEN-PITKIN COUNTY AIRPORT KASE 020753Z AUTO 00000KT 10SM FEW050 OVC065 02/M03 A3020 Gunnison, Gunnison-Crested Butte Regional Airport KGUC 020755Z AUTO 00000KT 10SM SCT029 BKN044 01/M02 A3026 RMK AO1 DURANGO-LA PLATA COUNTY AIRPORT  KDRO 020753Z AUTO 10003KT 10SM OVC040 03/02 A3024 RMK AO2 SLP244 T00280017 $ Stevens Field Airport KPSO 020755Z AUTO 00000KT 10SM -SN SCT005 OVC011 01/01 A3025 RMK AO2 T00110011 CORTEZ MONTEZUMA COUNTY AIRPORT  KCEZ 020753Z AUTO 16003KT 10SM SCT029 OVC040 06/01 A3021 RMK AO2 SLP200 T00610011 MONTROSE REGIONAL AIRPORT KMTJ 020753Z AUTO 00000KT 10SM BKN045 BKN060 OVC085 06/03 A3022 RMK AO2 RAE37 SLP199 P0000 T00560033 RIFLE GARFIELD COUNTY RGNL KRIL 020753Z AUTO 19003KT 10SM BKN041 OVC048 07/04 A3018 RMK AO2 RAB24E44 SLP188 P0000 T00720044 $ GRAND JUNCTION WALKER FIELD KGJT 020753Z AUTO 13009KT 10SM OVC120 08/04 A3017 Blake Field Airport KAJZ 020755Z AUTO 02003KT 10SM OVC042 08/06 A3020 RMK AO2 T00800057 Central Colorado Regional Airport KAEJ 020755Z AUTO 00000KT 7SM -SN SCT004 BKN021 OVC032 M01/M03 A3026 RMK AO2 T10151027 Harriet Alexander Field Airport KANK 020755Z AUTO 00000KT 4SM SCT017 BKN065 OVC075 00/M01 A3035 RMK AO1 T10011010 Erie Municipal Airport KEIK 020755Z AUTO 00000KT 10SM CLR M01/M01 A3028 RMK AO2 T10071015 Wray Municipal Airport K2V5 201635Z AUTO 01004KT 10SM SCT036 SCT044 SCT060 13/03 A3003 RMK AO2 T01330032
Legend: High Mountain AWOS Mountain Pass AWOS
Mountain Pass AWOS - Click symbol for weather report Pagosa Springs, Wolf Creek Pass KCPW 020756Z AUTO 21011KT 1/4SM SN OVC001 M06/M06 A3029 RMK AO2 P0001 Saguache, Saguache Municipal Airport K04V 020755Z AUTO 11005KT 10SM BKN050 OVC095 00/M02 A3026 RMK AO2 Kremmling, Mc Elroy Airfield K20V 020756Z AUTO 00000KT 10SM CLR M03/M07 A3025 RMK AO2 La Veta Mountain, La Veta Pass KVTP 020752Z AUTO 10SM SCT004 OVC008 M05/M06 A3025 RMK AO2 Salida Mountain, Monarch Pass KMYP 020755Z AUTO 1/4SM FZFG OVC002 M07/M08 A3036 RMK AO2 Cottonwood Pass K7BM 020750Z AUTO 00000KT 3SM -SN SCT001 SCT010 OVC065 M02/M04 A3026 RMK AO2 Elbert Mountain, Monument Pass KMNH 020756Z AUTO 24005KT 10SM CLR M07/M08 A3028 RMK AO2 Wilkerson Pass K4BM 020756Z AUTO 00000KT 3/4SM BR OVC002 A3026 RMK AO2 VIS 1/2V1 1/2 Copper Mountain, Red Cliff Pass KCCU 072317Z AUTO 29011G20KT 240V310 10SM CLR 07/M14 A3041 RMK AO2 EMPIRE 0CO Sunlight K5SM 020754Z AUTO 00000KT 10SM BKN012 BKN029 OVC042 M01/M02 A3029 RMK AO2 TSNO
Garmin Target Trend Avemco Insurance Company